Time;durP1;ratioP1;P1;durP2;ratioP2;P2;SDS_P1;SDS_P2;PMS_P1;PMS_P2;Temp;Humidity;BMP_temperature;BMP_pressure;BME280_temperature;BME280_humidity;BME280_pressure;Samples;Min_cycle;Max_cycle;Signal;HPM_P1;HPM_P2
2022/03/29 00:00:51;;;;;;;;;;;12.90;99.90;;;;;;5052592;28;19938;-62
2022/03/29 00:03:17;;;;;;;;;;;12.90;99.90;;;;;;5030772;28;20008;-62
2022/03/29 00:05:42;;;;;;;;;;;12.90;99.90;;;;;;5051606;28;19912;-61
2022/03/29 00:08:08;;;;;;;;;;;12.90;99.90;;;;;;5048875;28;20614;-63
2022/03/29 00:10:34;;;;;;;;;;;12.90;99.90;;;;;;5039685;28;19909;-62
2022/03/29 00:12:59;;;;;;;;;;;12.80;99.90;;;;;;5049516;28;19913;-62
2022/03/29 00:15:25;;;;;;;;;;;12.80;99.90;;;;;;5050279;28;19948;-62
2022/03/29 00:17:51;;;;;;;;;;;12.80;99.90;;;;;;5032395;28;19908;-62
2022/03/29 00:20:17;;;;;;;;;;;12.70;99.90;;;;;;5053582;28;19997;-62
2022/03/29 00:22:42;;;;;;;;;;;12.70;99.90;;;;;;5052947;28;19916;-62
2022/03/29 00:25:08;;;;;;;;;;;12.70;99.90;;;;;;5050960;28;19909;-62
2022/03/29 00:27:37;;;;;;;;;;;12.70;99.90;;;;;;5054451;28;20366;-61
2022/03/29 00:30:04;;;;;;;;;;;12.70;99.90;;;;;;5052191;28;19909;-62
2022/03/29 00:32:29;;;;;;;;;;;12.60;99.90;;;;;;5033557;28;19955;-63
2022/03/29 00:34:55;;;;;;;;;;;12.60;99.90;;;;;;5049087;28;20314;-62
2022/03/29 00:37:21;;;;;;;;;;;12.60;99.90;;;;;;5052754;28;19909;-62
2022/03/29 00:39:46;;;;;;;;;;;12.60;99.90;;;;;;5036029;28;20354;-62
2022/03/29 00:42:12;;;;;;;;;;;12.60;99.90;;;;;;5051648;28;20063;-61
2022/03/29 00:44:38;;;;;;;;;;;12.70;99.90;;;;;;5035488;28;19912;-62
2022/03/29 00:47:05;;;;;;;;;;;12.80;99.90;;;;;;5050729;28;19995;-61
2022/03/29 00:49:31;;;;;;;;;;;12.90;99.90;;;;;;5031449;28;20017;-62
2022/03/29 00:51:58;;;;;;;;;;;12.90;99.90;;;;;;5050123;28;20172;-62
2022/03/29 00:54:24;;;;;;;;;;;12.80;99.90;;;;;;5043813;28;19913;-62
2022/03/29 00:56:50;;;;;;;;;;;12.70;99.90;;;;;;5051040;28;19938;-63
2022/03/29 00:59:16;;;;;;;;;;;12.70;99.90;;;;;;5050579;28;19994;-62
2022/03/29 01:01:42;;;;;;;;;;;12.70;99.90;;;;;;5043915;28;19920;-61
2022/03/29 01:04:08;;;;;;;;;;;12.70;99.90;;;;;;5037030;28;19931;-63
2022/03/29 01:06:37;;;;;;;;;;;12.70;99.90;;;;;;5034121;28;19908;-62
2022/03/29 01:09:02;;;;;;;;;;;12.90;99.90;;;;;;5050248;28;20376;-62
2022/03/29 01:11:28;;;;;;;;;;;13.00;99.90;;;;;;5053696;28;20057;-60
2022/03/29 01:13:54;;;;;;;;;;;13.00;99.90;;;;;;5047960;28;19912;-62
2022/03/29 01:19:07;;;;;;;;;;;12.90;99.90;;;;;;5049853;28;20384;-62
2022/03/29 01:21:35;;;;;;;;;;;12.90;99.90;;;;;;5052025;28;20290;-62
2022/03/29 01:24:01;;;;;;;;;;;12.80;99.90;;;;;;5048139;28;20514;-61
2022/03/29 01:26:28;;;;;;;;;;;12.70;99.90;;;;;;5049283;28;19963;-61
2022/03/29 01:28:54;;;;;;;;;;;12.70;99.90;;;;;;5050142;28;19909;-61
2022/03/29 01:31:20;;;;;;;;;;;12.70;99.90;;;;;;5050586;28;19913;-61
2022/03/29 01:33:46;;;;;;;;;;;12.60;99.90;;;;;;5047873;28;19927;-61
2022/03/29 01:36:11;;;;;;;;;;;12.50;99.90;;;;;;5053168;28;20408;-62
2022/03/29 01:38:37;;;;;;;;;;;12.50;99.90;;;;;;5045595;28;19913;-61
2022/03/29 01:41:03;;;;;;;;;;;12.50;99.90;;;;;;5055719;28;19908;-62
2022/03/29 01:43:29;;;;;;;;;;;12.40;99.90;;;;;;5035824;28;19996;-61
2022/03/29 01:45:54;;;;;;;;;;;12.40;99.90;;;;;;5053863;28;19936;-62
2022/03/29 01:48:20;;;;;;;;;;;12.40;99.90;;;;;;5049204;28;19998;-62
2022/03/29 01:50:48;;;;;;;;;;;12.40;99.90;;;;;;5046868;28;19917;-62
2022/03/29 01:53:24;;;;;;;;;;;12.40;99.90;;;;;;5051763;28;19939;-62
2022/03/29 01:55:53;;;;;;;;;;;12.40;99.90;;;;;;5053753;28;19917;-62
2022/03/29 01:58:19;;;;;;;;;;;12.40;99.90;;;;;;5053423;28;19912;-62
2022/03/29 02:00:45;;;;;;;;;;;12.40;99.90;;;;;;5052750;28;19916;-61
2022/03/29 02:03:10;;;;;;;;;;;12.30;99.90;;;;;;5033934;28;19929;-62
2022/03/29 02:05:37;;;;;;;;;;;12.30;99.90;;;;;;5031988;28;19913;-63
2022/03/29 02:08:02;;;;;;;;;;;12.10;99.90;;;;;;5048852;28;19978;-62
2022/03/29 02:10:28;;;;;;;;;;;12.10;99.90;;;;;;5038927;28;20374;-62
2022/03/29 02:12:54;;;;;;;;;;;12.10;99.90;;;;;;5026288;28;19932;-61
2022/03/29 02:15:20;;;;;;;;;;;12.20;99.90;;;;;;5033262;28;20032;-63
2022/03/29 02:17:48;;;;;;;;;;;12.10;99.90;;;;;;5036009;28;19905;-63
2022/03/29 02:20:14;;;;;;;;;;;12.00;99.90;;;;;;5016364;28;19909;-64
2022/03/29 02:22:40;;;;;;;;;;;11.90;99.90;;;;;;5032637;28;19917;-62
2022/03/29 02:25:06;;;;;;;;;;;11.90;99.90;;;;;;5028305;28;20004;-61
2022/03/29 02:27:31;;;;;;;;;;;11.80;99.90;;;;;;5027216;28;20323;-61
2022/03/29 02:29:57;;;;;;;;;;;11.70;99.90;;;;;;5032752;28;20255;-62
2022/03/29 02:32:23;;;;;;;;;;;11.70;99.90;;;;;;5032927;28;19917;-61
2022/03/29 02:34:48;;;;;;;;;;;11.70;99.90;;;;;;5048730;28;19955;-62
2022/03/29 02:37:14;;;;;;;;;;;11.70;99.90;;;;;;5031002;28;20390;-62
2022/03/29 02:39:40;;;;;;;;;;;11.70;99.90;;;;;;5031383;28;19909;-62
2022/03/29 02:42:06;;;;;;;;;;;11.80;99.90;;;;;;5033544;28;20322;-61
2022/03/29 02:44:31;;;;;;;;;;;11.70;99.90;;;;;;5038172;28;20413;-62
2022/03/29 02:46:57;;;;;;;;;;;11.70;99.90;;;;;;5031875;28;19908;-62
2022/03/29 02:49:24;;;;;;;;;;;11.80;99.90;;;;;;5026264;28;19909;-63
2022/03/29 02:51:50;;;;;;;;;;;11.70;99.90;;;;;;5026204;28;19909;-62
2022/03/29 02:54:16;;;;;;;;;;;11.60;99.90;;;;;;5026164;28;20184;-62
2022/03/29 02:56:42;;;;;;;;;;;11.50;99.90;;;;;;5028414;28;19955;-63
2022/03/29 02:59:08;;;;;;;;;;;11.50;99.90;;;;;;5025761;28;19909;-63
2022/03/29 03:01:33;;;;;;;;;;;11.70;99.90;;;;;;5032373;28;20000;-62
2022/03/29 03:03:59;;;;;;;;;;;11.70;99.90;;;;;;5031673;28;20467;-63
2022/03/29 03:06:25;;;;;;;;;;;11.60;99.90;;;;;;5030358;28;19988;-62
2022/03/29 03:08:50;;;;;;;;;;;11.40;99.90;;;;;;5020751;28;19909;-62
2022/03/29 03:11:16;;;;;;;;;;;11.30;99.90;;;;;;5042219;28;19960;-62
2022/03/29 03:13:42;;;;;;;;;;;11.10;99.90;;;;;;5037175;28;19939;-61
2022/03/29 03:16:08;;;;;;;;;;;11.00;99.90;;;;;;5035655;28;20322;-62
2022/03/29 03:18:34;;;;;;;;;;;10.90;99.90;;;;;;5014794;28;20428;-62
2022/03/29 03:20:59;;;;;;;;;;;10.90;99.90;;;;;;5026894;28;19909;-62
2022/03/29 03:23:25;;;;;;;;;;;10.90;99.90;;;;;;5029446;28;19963;-62
2022/03/29 03:25:51;;;;;;;;;;;10.90;99.90;;;;;;5015647;28;19919;-62
2022/03/29 03:28:17;;;;;;;;;;;10.90;99.90;;;;;;5035742;28;19909;-62
2022/03/29 03:30:43;;;;;;;;;;;10.90;99.90;;;;;;5040981;28;20008;-63
2022/03/29 03:33:08;;;;;;;;;;;10.90;99.90;;;;;;5031509;28;20338;-62
2022/03/29 03:35:34;;;;;;;;;;;11.00;99.90;;;;;;5039039;28;19909;-62
2022/03/29 03:37:59;;;;;;;;;;;11.10;99.90;;;;;;5011656;28;20390;-63
2022/03/29 03:40:25;;;;;;;;;;;11.00;99.90;;;;;;5020453;28;19916;-61
2022/03/29 03:42:51;;;;;;;;;;;11.00;99.90;;;;;;5018241;28;20376;-62
2022/03/29 03:45:16;;;;;;;;;;;11.10;99.90;;;;;;5033650;28;19913;-62
2022/03/29 03:47:42;;;;;;;;;;;11.00;99.90;;;;;;5035439;28;20278;-62
2022/03/29 03:50:08;;;;;;;;;;;11.10;99.90;;;;;;5035623;28;19916;-63
2022/03/29 03:52:34;;;;;;;;;;;11.20;99.90;;;;;;5049584;28;20341;-61
2022/03/29 03:54:59;;;;;;;;;;;11.20;99.90;;;;;;5039301;28;19963;-64
2022/03/29 03:57:25;;;;;;;;;;;11.20;99.90;;;;;;5034082;28;19916;-62
2022/03/29 03:59:52;;;;;;;;;;;11.20;99.90;;;;;;5036142;28;19909;-63
2022/03/29 04:02:18;;;;;;;;;;;11.20;99.90;;;;;;5017097;28;20042;-62
2022/03/29 04:04:43;;;;;;;;;;;11.20;99.90;;;;;;5028501;28;19908;-62
2022/03/29 04:07:09;;;;;;;;;;;11.50;99.90;;;;;;5028789;28;20351;-62
2022/03/29 04:09:39;;;;;;;;;;;11.10;99.90;;;;;;5030516;28;19945;-62
2022/03/29 04:12:05;;;;;;;;;;;11.10;99.90;;;;;;5025536;28;19923;-61
2022/03/29 04:14:31;;;;;;;;;;;11.20;99.90;;;;;;5034581;28;19958;-62
2022/03/29 04:16:56;;;;;;;;;;;11.10;99.90;;;;;;5024462;28;19909;-62
2022/03/29 04:19:22;;;;;;;;;;;11.10;99.90;;;;;;5032181;28;19948;-61
2022/03/29 04:21:48;;;;;;;;;;;11.20;99.90;;;;;;5035004;28;19917;-61
2022/03/29 04:24:13;;;;;;;;;;;11.10;99.90;;;;;;5033538;28;19909;-63
2022/03/29 04:26:39;;;;;;;;;;;11.10;99.90;;;;;;5036704;28;20011;-62
2022/03/29 04:29:05;;;;;;;;;;;11.00;99.90;;;;;;5036135;28;19992;-61
2022/03/29 04:31:31;;;;;;;;;;;11.00;99.90;;;;;;5034168;28;19913;-62
2022/03/29 04:33:59;;;;;;;;;;;11.00;99.90;;;;;;5026876;28;20359;-64
2022/03/29 04:36:25;;;;;;;;;;;11.00;99.90;;;;;;5034453;28;19909;-62
2022/03/29 04:38:51;;;;;;;;;;;11.00;99.90;;;;;;5025350;28;19971;-61
2022/03/29 04:41:16;;;;;;;;;;;10.90;99.90;;;;;;5033904;28;20325;-61
2022/03/29 04:43:42;;;;;;;;;;;11.00;99.90;;;;;;5032033;28;20180;-62
2022/03/29 04:46:07;;;;;;;;;;;10.90;99.90;;;;;;5032527;28;19909;-63
2022/03/29 04:48:33;;;;;;;;;;;11.00;99.90;;;;;;5033472;28;19913;-62
2022/03/29 04:50:59;;;;;;;;;;;11.20;99.90;;;;;;5035556;28;19908;-63
2022/03/29 04:53:24;;;;;;;;;;;11.20;99.90;;;;;;5028657;28;19988;-62
2022/03/29 04:55:52;;;;;;;;;;;11.10;99.90;;;;;;5033976;28;19925;-63
2022/03/29 04:58:18;;;;;;;;;;;11.10;99.90;;;;;;5029515;28;19909;-68
2022/03/29 05:00:44;;;;;;;;;;;11.10;99.90;;;;;;5023981;28;19917;-62
2022/03/29 05:03:09;;;;;;;;;;;11.10;99.90;;;;;;5032483;28;19920;-62
2022/03/29 05:05:35;;;;;;;;;;;11.20;99.90;;;;;;5026444;28;19917;-62
2022/03/29 05:08:00;;;;;;;;;;;11.30;99.90;;;;;;5029876;28;19909;-62
2022/03/29 05:10:26;;;;;;;;;;;11.30;99.90;;;;;;5029890;28;19913;-63
2022/03/29 05:12:52;;;;;;;;;;;11.30;99.90;;;;;;5028129;28;19921;-63
2022/03/29 05:15:18;;;;;;;;;;;11.40;99.90;;;;;;5035070;28;19913;-63
2022/03/29 05:17:44;;;;;;;;;;;11.40;99.90;;;;;;5035772;28;19976;-62
2022/03/29 05:20:10;;;;;;;;;;;11.40;99.90;;;;;;5032680;28;19909;-62
2022/03/29 05:22:57;;;;;;;;;;;11.30;99.90;;;;;;5033314;28;19909;-62
2022/03/29 05:25:23;;;;;;;;;;;11.30;99.90;;;;;;5034153;28;19994;-62
2022/03/29 05:27:50;;;;;;;;;;;11.30;99.90;;;;;;5034247;28;19948;-62
2022/03/29 05:30:16;;;;;;;;;;;11.20;99.90;;;;;;5031031;28;20008;-62
2022/03/29 05:32:41;;;;;;;;;;;11.20;99.90;;;;;;5034280;28;20003;-62
2022/03/29 05:35:08;;;;;;;;;;;11.30;99.90;;;;;;5035994;28;20294;-63
2022/03/29 05:37:34;;;;;;;;;;;11.30;99.90;;;;;;5034737;28;19909;-62
2022/03/29 05:40:00;;;;;;;;;;;11.20;99.90;;;;;;5032861;28;20353;-61
2022/03/29 05:42:25;;;;;;;;;;;11.10;99.90;;;;;;5037954;28;19913;-62
2022/03/29 05:44:51;;;;;;;;;;;11.10;99.90;;;;;;5036963;28;20326;-62
2022/03/29 05:50:01;;;;;;;;;;;11.20;99.90;;;;;;5027602;28;19939;-62
2022/03/29 05:52:26;;;;;;;;;;;11.20;99.90;;;;;;5027550;28;19913;-61
2022/03/29 05:54:52;;;;;;;;;;;11.20;99.90;;;;;;5035203;28;20401;-62
2022/03/29 05:57:19;;;;;;;;;;;11.30;99.90;;;;;;5031832;28;19962;-62
2022/03/29 05:59:45;;;;;;;;;;;11.30;99.90;;;;;;5032323;28;19916;-62
2022/03/29 06:02:11;;;;;;;;;;;11.30;99.90;;;;;;5036133;28;20455;-62
2022/03/29 06:04:37;;;;;;;;;;;11.40;99.90;;;;;;5033480;28;19909;-64
2022/03/29 06:07:04;;;;;;;;;;;11.30;99.90;;;;;;5035379;28;19916;-62
2022/03/29 06:09:30;;;;;;;;;;;11.30;99.90;;;;;;5039549;28;19910;-62
2022/03/29 06:11:58;;;;;;;;;;;11.30;99.90;;;;;;5039140;28;20003;-62
2022/03/29 06:14:25;;;;;;;;;;;11.30;99.90;;;;;;5035270;28;19913;-63
2022/03/29 06:16:50;;;;;;;;;;;11.40;99.90;;;;;;5028210;28;20223;-62
2022/03/29 06:19:16;;;;;;;;;;;11.40;99.90;;;;;;5029903;28;19909;-63
2022/03/29 06:21:42;;;;;;;;;;;11.30;99.90;;;;;;5042977;28;19913;-62
2022/03/29 06:24:11;;;;;;;;;;;11.30;99.90;;;;;;5037097;28;19955;-62
2022/03/29 06:26:38;;;;;;;;;;;11.30;99.90;;;;;;5033199;28;19913;-63
2022/03/29 06:29:08;;;;;;;;;;;11.30;99.90;;;;;;5029027;28;20055;-62
2022/03/29 06:31:34;;;;;;;;;;;11.40;99.90;;;;;;5026209;28;20414;-62
2022/03/29 06:34:00;;;;;;;;;;;11.30;99.90;;;;;;5013622;28;19956;-62
2022/03/29 06:36:26;;;;;;;;;;;11.30;99.90;;;;;;5036695;28;19909;-63
2022/03/29 06:38:52;;;;;;;;;;;11.30;99.90;;;;;;5012050;28;19924;-61
2022/03/29 06:41:18;;;;;;;;;;;11.20;99.90;;;;;;5034738;28;19916;-62
2022/03/29 06:43:44;;;;;;;;;;;11.20;99.90;;;;;;5034323;28;19977;-63
2022/03/29 06:46:10;;;;;;;;;;;11.20;99.90;;;;;;5032875;28;20452;-62
2022/03/29 06:48:37;;;;;;;;;;;11.20;99.90;;;;;;5035954;28;20031;-64
2022/03/29 06:51:02;;;;;;;;;;;11.20;99.90;;;;;;5029484;28;19924;-61
2022/03/29 06:53:28;;;;;;;;;;;11.30;99.90;;;;;;5029697;28;19913;-62
2022/03/29 06:55:53;;;;;;;;;;;11.20;99.90;;;;;;5014847;28;20001;-63
2022/03/29 06:58:20;;;;;;;;;;;11.20;99.90;;;;;;5025811;28;19909;-61
2022/03/29 07:00:45;;;;;;;;;;;11.20;99.90;;;;;;5028492;28;20561;-64
2022/03/29 07:03:11;;;;;;;;;;;11.10;99.90;;;;;;5015101;28;20891;-63
2022/03/29 07:05:38;;;;;;;;;;;11.00;99.90;;;;;;5025241;28;19917;-64
2022/03/29 07:08:10;;;;;;;;;;;11.10;99.90;;;;;;5031369;28;19979;-64
2022/03/29 07:13:21;;;;;;;;;;;11.20;99.90;;;;;;5033105;28;19928;-63
2022/03/29 07:15:48;;;;;;;;;;;11.30;99.90;;;;;;5031631;28;19959;-65
2022/03/29 07:18:13;;;;;;;;;;;11.30;99.90;;;;;;5028838;28;19943;-63
2022/03/29 07:20:39;;;;;;;;;;;11.40;99.90;;;;;;5030440;28;20171;-63
2022/03/29 07:23:04;;;;;;;;;;;11.40;99.90;;;;;;5048368;28;19916;-62
2022/03/29 07:25:32;;;;;;;;;;;11.30;99.90;;;;;;5029537;28;19924;-63
2022/03/29 07:27:57;;;;;;;;;;;11.20;99.90;;;;;;5027974;28;19917;-63
2022/03/29 07:30:23;;;;;;;;;;;11.30;99.90;;;;;;5034817;28;19909;-63
2022/03/29 07:32:53;;;;;;;;;;;11.20;99.90;;;;;;5020782;28;20020;-63
2022/03/29 07:35:21;;;;;;;;;;;11.10;99.90;;;;;;5031485;28;20359;-63
2022/03/29 07:37:47;;;;;;;;;;;11.00;99.90;;;;;;5027517;28;19920;-64
2022/03/29 07:40:13;;;;;;;;;;;11.10;99.90;;;;;;5031803;28;20282;-63
2022/03/29 07:42:39;;;;;;;;;;;11.10;99.90;;;;;;5026455;28;19967;-62
2022/03/29 07:45:06;;;;;;;;;;;11.00;99.90;;;;;;5032451;28;19909;-63
2022/03/29 07:47:32;;;;;;;;;;;11.00;99.90;;;;;;5032243;28;19990;-62
2022/03/29 07:49:58;;;;;;;;;;;11.00;99.90;;;;;;5015407;28;19932;-66
2022/03/29 07:52:23;;;;;;;;;;;11.10;99.90;;;;;;5032994;28;19913;-62
2022/03/29 07:54:49;;;;;;;;;;;11.20;99.90;;;;;;5034780;28;19931;-63
2022/03/29 07:57:14;;;;;;;;;;;11.10;99.90;;;;;;5030390;28;19936;-63
2022/03/29 07:59:40;;;;;;;;;;;11.10;99.90;;;;;;5011507;28;20302;-61
2022/03/29 08:02:06;;;;;;;;;;;11.10;99.90;;;;;;5030102;28;20345;-64
2022/03/29 08:04:32;;;;;;;;;;;11.10;99.90;;;;;;5054235;28;19921;-62
2022/03/29 08:06:58;;;;;;;;;;;11.20;99.90;;;;;;5048283;28;20354;-62
2022/03/29 08:09:25;;;;;;;;;;;11.30;99.90;;;;;;5050903;28;19969;-61
2022/03/29 08:11:51;;;;;;;;;;;11.10;99.90;;;;;;5029918;28;19928;-63
2022/03/29 08:14:18;;;;;;;;;;;11.10;99.90;;;;;;5046347;28;19913;-61
2022/03/29 08:16:43;;;;;;;;;;;11.20;99.90;;;;;;5032899;28;19931;-63
2022/03/29 08:19:09;;;;;;;;;;;11.20;99.90;;;;;;5052449;28;19909;-62
2022/03/29 08:21:50;;;;;;;;;;;11.20;99.90;;;;;;5056934;28;20017;-63
2022/03/29 08:24:17;;;;;;;;;;;11.20;99.90;;;;;;5060980;28;19951;-62
2022/03/29 08:26:43;;;;;;;;;;;11.20;99.90;;;;;;5037720;28;19908;-62
2022/03/29 08:29:11;;;;;;;;;;;11.30;99.90;;;;;;5046526;28;19990;-62
2022/03/29 08:31:36;;;;;;;;;;;11.40;99.90;;;;;;5053008;28;19913;-62
2022/03/29 08:34:02;;;;;;;;;;;11.50;99.90;;;;;;5044167;28;19920;-62
2022/03/29 08:36:27;;;;;;;;;;;11.50;99.90;;;;;;5051727;28;19915;-62
2022/03/29 08:38:53;;;;;;;;;;;11.40;99.90;;;;;;5031286;28;19935;-61
2022/03/29 08:41:20;;;;;;;;;;;11.40;99.90;;;;;;5046409;28;19935;-62
2022/03/29 08:43:46;;;;;;;;;;;11.20;99.90;;;;;;5048959;28;20259;-63
2022/03/29 08:46:12;;;;;;;;;;;11.20;99.90;;;;;;5048926;28;19920;-62
2022/03/29 08:48:37;;;;;;;;;;;11.30;99.90;;;;;;5054919;28;19917;-62
2022/03/29 08:51:04;;;;;;;;;;;11.30;99.90;;;;;;5055679;28;19909;-63
2022/03/29 08:53:30;;;;;;;;;;;11.10;99.90;;;;;;5054348;28;20042;-62
2022/03/29 08:55:55;;;;;;;;;;;11.00;99.90;;;;;;5053365;28;20309;-62
2022/03/29 08:58:22;;;;;;;;;;;11.00;99.90;;;;;;5054362;28;20362;-62
2022/03/29 09:00:49;;;;;;;;;;;11.00;99.90;;;;;;5066849;28;19944;-62
2022/03/29 09:03:15;;;;;;;;;;;10.90;99.90;;;;;;5077907;28;19984;-66
2022/03/29 09:05:40;;;;;;;;;;;10.90;99.90;;;;;;5076586;28;19919;-62
2022/03/29 09:08:09;;;;;;;;;;;11.00;99.90;;;;;;5073191;28;19900;-63
2022/03/29 09:10:45;;;;;;;;;;;11.00;99.90;;;;;;5078587;28;19923;-64
2022/03/29 09:13:22;;;;;;;;;;;11.00;99.90;;;;;;5077768;28;19901;-62
2022/03/29 09:15:49;;;;;;;;;;;10.90;99.90;;;;;;5076598;28;19967;-63
2022/03/29 09:18:14;;;;;;;;;;;10.80;99.90;;;;;;5084002;28;19897;-63
2022/03/29 09:20:40;;;;;;;;;;;10.90;99.90;;;;;;5057635;28;19913;-62
2022/03/29 09:23:12;;;;;;;;;;;10.80;99.90;;;;;;5072518;28;19913;-63
2022/03/29 09:25:39;;;;;;;;;;;10.90;99.90;;;;;;5077174;28;19912;-62
2022/03/29 09:28:05;;;;;;;;;;;10.80;99.90;;;;;;5079454;28;19897;-63
2022/03/29 09:30:41;;;;;;;;;;;10.80;99.90;;;;;;5058196;28;19907;-66
2022/03/29 09:33:07;;;;;;;;;;;10.90;99.90;;;;;;5059127;28;19920;-63
2022/03/29 09:35:34;;;;;;;;;;;10.90;99.90;;;;;;5077758;28;19956;-62
2022/03/29 09:38:01;;;;;;;;;;;10.90;99.90;;;;;;5077971;28;19919;-63
2022/03/29 09:40:53;;;;;;;;;;;10.90;99.90;;;;;;5050893;28;19924;-63
2022/03/29 09:43:20;;;;;;;;;;;10.90;99.90;;;;;;5073930;28;19913;-63
2022/03/29 09:45:50;;;;;;;;;;;11.00;99.90;;;;;;5073742;28;19919;-62
2022/03/29 09:48:22;;;;;;;;;;;11.00;99.90;;;;;;5073345;28;19943;-62
2022/03/29 09:50:49;;;;;;;;;;;11.00;99.90;;;;;;5067754;28;19909;-63
2022/03/29 09:53:33;;;;;;;;;;;10.90;99.90;;;;;;5072788;28;19920;-63
2022/03/29 09:55:59;;;;;;;;;;;10.90;99.90;;;;;;5074823;28;19900;-62
2022/03/29 09:58:28;;;;;;;;;;;10.90;99.90;;;;;;5073527;28;19896;-63
2022/03/29 10:00:55;;;;;;;;;;;10.90;99.90;;;;;;5079511;28;19897;-62
2022/03/29 10:03:23;;;;;;;;;;;10.90;99.90;;;;;;5056057;28;19979;-63
2022/03/29 10:05:49;;;;;;;;;;;10.90;99.90;;;;;;5071494;28;19901;-63
2022/03/29 10:11:01;;;;;;;;;;;10.70;99.90;;;;;;5077288;28;19943;-65
2022/03/29 10:13:28;;;;;;;;;;;10.80;99.90;;;;;;5069880;28;19897;-62
2022/03/29 10:15:55;;;;;;;;;;;10.70;99.90;;;;;;5076215;28;19908;-67
2022/03/29 10:18:24;;;;;;;;;;;10.70;99.90;;;;;;5056192;28;19901;-68
2022/03/29 10:20:49;;;;;;;;;;;10.80;99.90;;;;;;5057465;28;19905;-62
2022/03/29 10:23:18;;;;;;;;;;;10.90;99.90;;;;;;5079386;28;19974;-63
2022/03/29 10:25:44;;;;;;;;;;;10.80;99.90;;;;;;5065475;28;19905;-63
2022/03/29 10:28:09;;;;;;;;;;;10.80;99.90;;;;;;5073470;28;19936;-63
2022/03/29 10:30:47;;;;;;;;;;;10.90;99.90;;;;;;5077866;28;19963;-62
2022/03/29 10:33:17;;;;;;;;;;;10.80;99.90;;;;;;5071508;28;19908;-62
2022/03/29 10:36:02;;;;;;;;;;;10.90;99.90;;;;;;5075509;28;19904;-63
2022/03/29 10:38:43;;;;;;;;;;;10.90;99.90;;;;;;5074637;28;19925;-63
2022/03/29 10:41:31;;;;;;;;;;;11.00;99.90;;;;;;5066300;28;19901;-63
2022/03/29 10:44:01;;;;;;;;;;;11.00;99.90;;;;;;5066417;28;19912;-63
2022/03/29 10:46:50;;;;;;;;;;;11.00;99.90;;;;;;5081148;28;19901;-64
2022/03/29 10:49:22;;;;;;;;;;;11.00;99.90;;;;;;5069677;28;19912;-64
2022/03/29 10:51:53;;;;;;;;;;;11.00;99.90;;;;;;5074579;28;19909;-62
2022/03/29 10:54:28;;;;;;;;;;;11.10;99.90;;;;;;5057738;28;19912;-62
2022/03/29 10:56:57;;;;;;;;;;;11.10;99.90;;;;;;5074960;28;19912;-62
2022/03/29 10:59:23;;;;;;;;;;;11.30;99.90;;;;;;5083814;28;19923;-64
2022/03/29 11:02:09;;;;;;;;;;;11.30;99.90;;;;;;5056016;28;19901;-63
2022/03/29 11:04:34;;;;;;;;;;;11.30;99.90;;;;;;5061294;28;19919;-63
2022/03/29 11:07:06;;;;;;;;;;;11.40;99.90;;;;;;5074226;28;19940;-62
2022/03/29 11:09:36;;;;;;;;;;;11.50;99.90;;;;;;5072642;28;19980;-63
2022/03/29 11:12:03;;;;;;;;;;;11.60;99.90;;;;;;5075677;28;19916;-63
2022/03/29 11:14:35;;;;;;;;;;;11.60;99.90;;;;;;5047887;28;19928;-62
2022/03/29 11:17:01;;;;;;;;;;;11.60;99.90;;;;;;5074974;28;19901;-67
2022/03/29 11:19:44;;;;;;;;;;;11.80;99.90;;;;;;5074578;28;19924;-67
2022/03/29 11:22:26;;;;;;;;;;;11.80;99.90;;;;;;5073185;28;19913;-63
2022/03/29 11:24:52;;;;;;;;;;;11.80;99.90;;;;;;5081684;28;19968;-63
2022/03/29 11:27:22;;;;;;;;;;;11.90;99.90;;;;;;5078667;28;19935;-64
2022/03/29 11:29:48;;;;;;;;;;;11.90;99.90;;;;;;5052314;28;19956;-63
2022/03/29 11:32:21;;;;;;;;;;;12.00;99.90;;;;;;5099294;27;2083716;-63
2022/03/29 11:34:51;;;;;;;;;;;12.20;99.90;;;;;;5179965;27;19914;-61
2022/03/29 11:37:27;;;;;;;;;;;12.30;99.90;;;;;;5180686;27;19943;-63
2022/03/29 11:39:52;;;;;;;;;;;12.30;99.90;;;;;;5174133;27;19917;-63
2022/03/29 11:42:18;;;;;;;;;;;12.40;99.90;;;;;;5166370;27;19943;-62
2022/03/29 11:44:46;;;;;;;;;;;12.40;99.90;;;;;;5181119;27;19926;-63
2022/03/29 11:47:11;;;;;;;;;;;12.60;99.90;;;;;;5175376;27;19918;-62
2022/03/29 11:49:38;;;;;;;;;;;12.70;99.90;;;;;;5174821;27;19919;-64
2022/03/29 11:52:06;;;;;;;;;;;12.70;99.90;;;;;;5181048;27;19922;-62
2022/03/29 11:54:37;;;;;;;;;;;12.60;99.90;;;;;;5175941;27;19903;-62
2022/03/29 11:57:12;;;;;;;;;;;12.40;99.90;;;;;;5169921;27;19935;-63
2022/03/29 11:59:38;;;;;;;;;;;12.50;99.90;;;;;;5177405;27;19915;-65
2022/03/29 12:02:05;;;;;;;;;;;12.40;99.90;;;;;;5188851;27;19903;-63
2022/03/29 12:04:32;;;;;;;;;;;12.50;99.90;;;;;;5184150;27;19979;-64
2022/03/29 12:06:58;;;;;;;;;;;12.40;99.90;;;;;;5173421;27;19903;-65
2022/03/29 12:09:24;;;;;;;;;;;12.40;99.90;;;;;;5176510;27;19922;-66
2022/03/29 12:11:54;;;;;;;;;;;12.30;99.90;;;;;;5160874;27;19923;-64
2022/03/29 12:14:23;;;;;;;;;;;12.40;99.90;;;;;;5152184;27;19919;-64
2022/03/29 12:16:53;;;;;;;;;;;12.40;99.90;;;;;;5174598;27;19922;-63
2022/03/29 12:19:20;;;;;;;;;;;12.30;99.90;;;;;;5169081;27;19895;-63
2022/03/29 12:21:48;;;;;;;;;;;12.40;99.90;;;;;;5178109;27;19907;-63
2022/03/29 12:24:14;;;;;;;;;;;12.40;99.90;;;;;;5173778;27;19912;-63
2022/03/29 12:26:44;;;;;;;;;;;12.50;99.90;;;;;;5175990;27;19975;-70
2022/03/29 12:29:12;;;;;;;;;;;12.50;99.90;;;;;;5175611;27;19904;-63
2022/03/29 12:31:38;;;;;;;;;;;12.50;99.90;;;;;;5175838;27;19932;-65
2022/03/29 12:34:04;;;;;;;;;;;12.50;99.90;;;;;;5181343;27;19904;-63
2022/03/29 12:36:30;;;;;;;;;;;12.60;99.90;;;;;;5175768;27;19910;-63
2022/03/29 12:38:59;;;;;;;;;;;12.60;99.90;;;;;;5171804;27;20541;-62
2022/03/29 12:41:32;;;;;;;;;;;12.50;99.90;;;;;;5180814;27;19903;-63
2022/03/29 12:43:58;;;;;;;;;;;12.50;99.90;;;;;;5162581;27;19986;-63
2022/03/29 12:46:23;;;;;;;;;;;12.50;99.90;;;;;;5166664;27;19924;-62
2022/03/29 12:48:49;;;;;;;;;;;12.60;99.90;;;;;;5158448;27;19915;-63
2022/03/29 12:51:24;;;;;;;;;;;12.60;99.90;;;;;;5148864;27;19919;-63
2022/03/29 12:53:57;;;;;;;;;;;12.60;99.90;;;;;;5170383;27;19913;-63
2022/03/29 12:56:30;;;;;;;;;;;12.80;99.90;;;;;;5168643;27;19970;-67
2022/03/29 12:58:55;;;;;;;;;;;13.00;99.90;;;;;;5159017;27;19907;-63
2022/03/29 13:01:30;;;;;;;;;;;13.20;99.90;;;;;;5161999;27;19918;-64
2022/03/29 13:04:09;;;;;;;;;;;13.10;99.90;;;;;;5161610;27;19925;-66
2022/03/29 13:06:41;;;;;;;;;;;12.90;99.90;;;;;;5147989;27;19904;-62
2022/03/29 13:09:11;;;;;;;;;;;12.80;99.90;;;;;;5175504;27;19916;-63
2022/03/29 13:11:38;;;;;;;;;;;12.70;99.90;;;;;;5145732;27;19975;-64
2022/03/29 13:14:04;;;;;;;;;;;13.00;99.90;;;;;;5154491;27;19919;-63
2022/03/29 13:16:30;;;;;;;;;;;13.20;99.90;;;;;;5166188;27;19929;-63
2022/03/29 13:18:56;;;;;;;;;;;13.50;99.90;;;;;;5160396;27;19916;-63
2022/03/29 13:21:22;;;;;;;;;;;13.50;99.90;;;;;;5147678;27;19925;-63
2022/03/29 13:23:49;;;;;;;;;;;13.30;99.90;;;;;;5147655;27;19915;-64
2022/03/29 13:26:15;;;;;;;;;;;13.40;99.90;;;;;;5163152;27;19934;-63
2022/03/29 13:28:41;;;;;;;;;;;13.50;99.90;;;;;;5161084;27;19918;-65
2022/03/29 13:31:10;;;;;;;;;;;13.50;99.90;;;;;;5140986;27;19911;-63
2022/03/29 13:33:36;;;;;;;;;;;13.50;99.90;;;;;;5166652;27;19966;-63
2022/03/29 13:36:09;;;;;;;;;;;13.10;99.90;;;;;;5170317;27;19915;-64
2022/03/29 13:38:35;;;;;;;;;;;13.20;99.90;;;;;;5165765;27;19942;-64
2022/03/29 13:41:00;;;;;;;;;;;13.40;99.90;;;;;;5158050;27;19922;-65
2022/03/29 13:43:26;;;;;;;;;;;13.50;99.90;;;;;;5166990;27;19903;-65
2022/03/29 13:45:52;;;;;;;;;;;13.50;99.90;;;;;;5159263;27;19935;-63
2022/03/29 13:48:17;;;;;;;;;;;13.50;99.90;;;;;;5161202;27;19914;-63
2022/03/29 13:50:43;;;;;;;;;;;13.40;99.90;;;;;;5167838;27;19928;-63
2022/03/29 13:53:09;;;;;;;;;;;13.50;99.90;;;;;;5163984;27;19927;-63
2022/03/29 13:55:35;;;;;;;;;;;13.60;99.90;;;;;;5141121;27;19937;-63
2022/03/29 13:58:04;;;;;;;;;;;13.80;99.90;;;;;;5163642;27;19903;-61
2022/03/29 14:00:39;;;;;;;;;;;13.70;99.90;;;;;;5165092;27;19911;-66
2022/03/29 14:03:06;;;;;;;;;;;13.70;99.90;;;;;;5163415;27;19903;-65
2022/03/29 14:05:31;;;;;;;;;;;13.70;99.90;;;;;;5156029;27;19950;-63
2022/03/29 14:07:57;;;;;;;;;;;13.60;99.90;;;;;;5160369;27;19903;-62
2022/03/29 14:10:23;;;;;;;;;;;13.60;99.90;;;;;;5153084;27;19931;-63
2022/03/29 14:12:48;;;;;;;;;;;13.50;99.90;;;;;;5159630;27;19910;-67
2022/03/29 14:15:14;;;;;;;;;;;13.30;99.90;;;;;;5171576;27;20139;-63
2022/03/29 14:17:40;;;;;;;;;;;13.20;99.90;;;;;;5160699;27;19934;-64
2022/03/29 14:20:06;;;;;;;;;;;13.30;99.90;;;;;;5140834;27;19994;-63
2022/03/29 14:22:32;;;;;;;;;;;13.40;99.90;;;;;;5162945;27;19903;-66
2022/03/29 14:24:59;;;;;;;;;;;13.40;99.90;;;;;;5165753;27;19911;-64
2022/03/29 14:27:25;;;;;;;;;;;13.50;99.90;;;;;;5162460;27;19922;-63